createdAt,value
2023-12-20T00:00:40.928Z,54.61
2023-12-20T00:01:39.858Z,55.56
2023-12-20T00:02:39.782Z,54.01
2023-12-20T00:03:42.470Z,51.73
2023-12-20T00:04:41.011Z,52.61
2023-12-20T00:05:39.833Z,53.74
2023-12-20T00:06:40.097Z,52.37
2023-12-20T00:07:39.745Z,51.38
2023-12-20T00:08:39.654Z,53.31
2023-12-20T00:09:39.729Z,51.90
2023-12-20T00:10:39.633Z,55.58
2023-12-20T00:11:39.657Z,54.38
2023-12-20T00:12:39.704Z,53.55
2023-12-20T00:13:39.724Z,52.54
2023-12-20T00:14:39.779Z,52.74
2023-12-20T00:15:39.649Z,53.02
2023-12-20T00:16:39.848Z,51.39
2023-12-20T00:17:39.995Z,51.00
2023-12-20T00:18:39.664Z,54.22
2023-12-20T00:19:39.712Z,54.60
2023-12-20T00:20:39.741Z,53.62
2023-12-20T00:21:39.619Z,49.92
2023-12-20T00:22:39.660Z,50.87
2023-12-20T00:23:39.569Z,52.94
2023-12-20T00:24:39.565Z,51.77
2023-12-20T00:25:39.591Z,53.04
2023-12-20T00:26:39.411Z,52.37
2023-12-20T00:27:39.557Z,54.13
2023-12-20T00:28:39.554Z,52.32
2023-12-20T00:29:39.345Z,56.50
2023-12-20T00:30:39.526Z,53.66
2023-12-20T00:31:39.426Z,49.71
2023-12-20T00:32:39.620Z,53.09
2023-12-20T00:33:40.367Z,55.78
2023-12-20T00:34:39.406Z,53.12
2023-12-20T00:35:39.316Z,51.85
2023-12-20T00:36:39.434Z,55.01
2023-12-20T00:37:40.322Z,54.12
2023-12-20T00:38:39.314Z,52.76
2023-12-20T00:39:39.759Z,53.09
2023-12-20T00:40:39.445Z,51.31
2023-12-20T00:41:39.658Z,53.77
2023-12-20T00:42:39.536Z,53.31
2023-12-20T00:43:39.545Z,50.87
2023-12-20T00:44:39.388Z,51.66
2023-12-20T00:45:39.519Z,50.57
2023-12-20T00:46:39.803Z,51.04
2023-12-20T00:47:39.416Z,57.42
2023-12-20T00:48:39.361Z,50.48
2023-12-20T00:49:39.348Z,52.49
2023-12-20T00:50:39.349Z,49.21
2023-12-20T00:51:39.398Z,53.02
2023-12-20T00:52:39.368Z,52.07
2023-12-20T00:53:39.316Z,53.26
2023-12-20T00:54:39.460Z,52.99
2023-12-20T00:55:39.433Z,53.45
2023-12-20T00:56:39.404Z,56.57
2023-12-20T00:57:39.596Z,50.70
2023-12-20T00:58:39.323Z,49.60
2023-12-20T00:59:39.353Z,51.31
2023-12-20T01:00:41.533Z,50.84
2023-12-20T01:01:39.478Z,56.02
2023-12-20T01:02:39.351Z,52.28
2023-12-20T01:03:39.492Z,49.90
2023-12-20T01:04:40.217Z,52.34
2023-12-20T01:05:39.426Z,48.40
2023-12-20T01:06:39.395Z,46.18
2023-12-20T01:07:39.242Z,50.06
2023-12-20T01:08:39.575Z,51.97
2023-12-20T01:09:39.259Z,53.32
2023-12-20T01:10:39.265Z,55.63
2023-12-20T01:11:39.270Z,53.33
2023-12-20T01:12:39.283Z,56.89
2023-12-20T01:13:39.086Z,52.10
2023-12-20T01:14:39.112Z,51.10
2023-12-20T01:15:40.144Z,53.23
2023-12-20T01:16:39.069Z,52.64
2023-12-20T01:17:39.129Z,55.18
2023-12-20T01:18:39.235Z,56.10
2023-12-20T01:19:40.255Z,53.05
2023-12-20T01:20:39.113Z,53.90
2023-12-20T01:21:39.169Z,56.27
2023-12-20T01:22:39.096Z,56.21
2023-12-20T01:23:40.129Z,53.48
2023-12-20T01:24:39.340Z,51.99
2023-12-20T01:25:39.241Z,50.14
2023-12-20T01:26:39.079Z,48.57
2023-12-20T01:27:39.259Z,53.93
2023-12-20T01:28:39.108Z,55.33
2023-12-20T01:29:39.135Z,54.48
2023-12-20T01:30:39.255Z,52.56
2023-12-20T01:31:39.246Z,49.79
2023-12-20T01:32:39.463Z,53.17
2023-12-20T01:33:39.151Z,54.63
2023-12-20T01:34:39.060Z,52.58
2023-12-20T01:35:39.105Z,54.28
2023-12-20T01:36:39.082Z,49.48
2023-12-20T01:37:39.097Z,46.76
2023-12-20T01:38:39.164Z,47.05
2023-12-20T01:39:39.036Z,50.43
2023-12-20T01:40:39.070Z,52.67
2023-12-20T01:41:39.018Z,55.86
2023-12-20T01:42:39.147Z,52.47
2023-12-20T01:43:44.778Z,51.63
2023-12-20T01:44:41.271Z,53.32
2023-12-20T01:45:39.099Z,50.65
2023-12-20T01:46:40.086Z,50.65
2023-12-20T01:47:39.016Z,52.14
2023-12-20T01:48:38.997Z,54.60
2023-12-20T01:49:39.182Z,50.71
2023-12-20T01:50:39.146Z,50.38
2023-12-20T01:51:39.067Z,50.28
2023-12-20T01:52:39.025Z,53.22
2023-12-20T01:53:38.917Z,54.52
2023-12-20T01:54:38.966Z,56.05
2023-12-20T01:55:39.168Z,56.59
2023-12-20T01:56:38.897Z,53.87
2023-12-20T01:57:39.033Z,50.39
2023-12-20T01:58:38.810Z,53.30
2023-12-20T01:59:38.719Z,55.99
2023-12-20T02:00:39.001Z,51.28
2023-12-20T02:01:38.806Z,57.16
2023-12-20T02:02:38.876Z,55.10
2023-12-20T02:03:39.397Z,53.43
2023-12-20T02:04:38.830Z,51.06
2023-12-20T02:05:38.717Z,54.39
2023-12-20T02:06:38.763Z,57.12
2023-12-20T02:07:38.770Z,56.23
2023-12-20T02:08:38.710Z,51.87
2023-12-20T02:09:38.675Z,48.33
2023-12-20T02:10:38.723Z,50.68
2023-12-20T02:11:38.950Z,53.40
2023-12-20T02:12:38.862Z,50.31
2023-12-20T02:13:39.529Z,52.42
2023-12-20T02:14:38.744Z,51.84
2023-12-20T02:15:38.858Z,53.09
2023-12-20T02:16:38.893Z,51.39
2023-12-20T02:17:38.762Z,50.04
2023-12-20T02:18:39.007Z,47.24
2023-12-20T02:19:38.846Z,51.07
2023-12-20T02:20:38.709Z,50.00
2023-12-20T02:21:38.791Z,48.55
2023-12-20T02:22:38.782Z,48.03
2023-12-20T02:23:38.816Z,49.98
2023-12-20T02:24:39.081Z,55.91
2023-12-20T02:25:38.659Z,51.09
2023-12-20T02:26:38.644Z,53.90
2023-12-20T02:27:38.863Z,54.56
2023-12-20T02:28:38.700Z,54.05
2023-12-20T02:29:38.824Z,55.37
2023-12-20T02:30:38.852Z,55.59
2023-12-20T02:31:38.723Z,54.75
2023-12-20T02:32:38.879Z,51.98
2023-12-20T02:33:38.705Z,56.07
2023-12-20T02:34:38.763Z,57.47
2023-12-20T02:35:38.962Z,53.11
2023-12-20T02:36:38.709Z,49.97
2023-12-20T02:37:38.608Z,52.18
2023-12-20T02:38:38.742Z,51.33
2023-12-20T02:39:39.298Z,53.16
2023-12-20T02:40:38.520Z,53.73
2023-12-20T02:41:38.661Z,53.92
2023-12-20T02:42:38.568Z,51.50
2023-12-20T02:43:38.532Z,53.24
2023-12-20T02:44:38.588Z,55.02
2023-12-20T02:45:38.587Z,57.82
2023-12-20T02:46:39.374Z,56.42
2023-12-20T02:47:38.731Z,55.47
2023-12-20T02:48:38.597Z,54.19
2023-12-20T02:49:38.524Z,54.38
2023-12-20T02:50:38.522Z,51.84
2023-12-20T02:51:38.445Z,56.08
2023-12-20T02:52:38.500Z,52.99
2023-12-20T02:53:38.403Z,53.77
2023-12-20T02:54:38.436Z,53.03
2023-12-20T02:55:38.396Z,53.99
2023-12-20T04:12:22.299Z,59.63
2023-12-20T04:13:22.168Z,60.14
2023-12-20T04:14:22.095Z,58.49
2023-12-20T04:15:22.234Z,59.95
2023-12-20T04:16:22.168Z,60.01
2023-12-20T04:17:22.154Z,57.97
2023-12-20T04:18:22.134Z,56.92
2023-12-20T04:19:22.202Z,62.87
2023-12-20T04:20:22.406Z,62.88
2023-12-20T04:21:22.228Z,61.38
2023-12-20T04:22:22.407Z,60.64
2023-12-20T04:23:22.983Z,58.69
2023-12-20T04:24:22.154Z,58.71
2023-12-20T04:25:22.260Z,63.47
2023-12-20T04:26:22.352Z,58.69
2023-12-20T04:27:22.197Z,64.29
2023-12-20T04:28:22.203Z,63.81
2023-12-20T04:29:22.582Z,63.81
2023-12-20T04:30:22.998Z,62.36
2023-12-20T04:31:22.253Z,63.44
2023-12-20T04:32:22.108Z,61.92
2023-12-20T04:33:22.075Z,60.78
2023-12-20T04:34:22.499Z,64.22
2023-12-20T04:35:22.164Z,62.61
2023-12-20T04:36:22.066Z,63.60
2023-12-20T04:37:22.332Z,59.02
2023-12-20T04:38:22.322Z,62.13
2023-12-20T04:39:22.138Z,64.62
2023-12-20T04:40:22.003Z,63.40
2023-12-20T04:41:22.327Z,62.97
2023-12-20T04:42:22.026Z,62.39
2023-12-20T04:43:22.139Z,61.52
2023-12-20T04:44:22.188Z,59.60
2023-12-20T04:45:22.981Z,63.01
2023-12-20T04:46:22.239Z,62.81
2023-12-20T04:47:22.250Z,64.43
2023-12-20T04:48:22.115Z,60.20
2023-12-20T04:49:22.098Z,59.55
2023-12-20T04:50:22.153Z,60.34
2023-12-20T04:51:21.970Z,62.80
2023-12-20T04:52:22.866Z,62.68
2023-12-20T04:53:22.532Z,63.62
2023-12-20T04:54:22.524Z,61.41
2023-12-20T04:55:21.884Z,63.55
2023-12-20T04:56:21.866Z,59.85
2023-12-20T04:57:21.939Z,61.25
2023-12-20T04:58:21.848Z,61.98
2023-12-20T04:59:21.782Z,61.14
2023-12-20T05:00:21.909Z,63.62
2023-12-20T05:01:22.002Z,61.04
2023-12-20T05:02:21.796Z,56.63
2023-12-20T05:03:21.796Z,60.25
2023-12-20T05:04:21.866Z,58.48
2023-12-20T05:05:22.569Z,59.33
2023-12-20T05:06:21.813Z,58.26
2023-12-20T05:07:22.053Z,62.42
2023-12-20T05:08:22.583Z,60.10
2023-12-20T05:09:21.910Z,62.47
2023-12-20T05:10:22.260Z,56.49
2023-12-20T05:11:21.948Z,58.93
2023-12-20T05:12:21.874Z,59.49
2023-12-20T05:13:22.515Z,59.00
2023-12-20T05:14:21.813Z,60.96
2023-12-20T05:15:22.531Z,58.36
2023-12-20T05:16:21.909Z,58.14
2023-12-20T05:17:21.828Z,61.08
2023-12-20T05:18:21.800Z,60.50
2023-12-20T05:19:21.796Z,58.43
2023-12-20T05:20:22.635Z,59.41
2023-12-20T05:21:23.061Z,57.77
2023-12-20T05:22:22.861Z,58.65
2023-12-20T05:23:21.813Z,57.04
2023-12-20T05:24:21.759Z,58.11
2023-12-20T05:25:21.822Z,54.77
2023-12-20T05:26:21.771Z,57.66
2023-12-20T05:27:21.782Z,57.25
2023-12-20T05:28:21.746Z,59.04
2023-12-20T05:29:21.843Z,57.24
2023-12-20T05:30:21.827Z,57.53
2023-12-20T05:31:21.891Z,58.11
2023-12-20T05:32:22.115Z,58.35
2023-12-20T05:33:22.603Z,59.36
2023-12-20T05:34:21.980Z,59.33
2023-12-20T05:35:21.996Z,61.51
2023-12-20T05:36:21.770Z,60.57
2023-12-20T05:37:21.808Z,61.62
2023-12-20T05:38:22.019Z,62.32
2023-12-20T05:39:21.681Z,59.39
2023-12-20T05:40:21.648Z,57.86
2023-12-20T05:41:21.534Z,60.64
2023-12-20T05:42:21.483Z,57.47
2023-12-20T05:43:21.633Z,58.40
2023-12-20T05:44:21.553Z,59.78
2023-12-20T05:45:21.963Z,58.88
2023-12-20T05:46:21.697Z,59.19
2023-12-20T05:47:21.550Z,59.70
2023-12-20T05:48:21.605Z,58.81
2023-12-20T05:49:21.708Z,59.16
2023-12-20T05:50:21.601Z,60.41
2023-12-20T05:51:21.684Z,59.14
2023-12-20T05:52:21.651Z,58.59
2023-12-20T05:53:21.653Z,59.23
2023-12-20T05:54:21.641Z,56.29
2023-12-20T05:55:21.701Z,56.69
2023-12-20T05:56:22.042Z,58.22
2023-12-20T05:57:21.685Z,59.25
2023-12-20T05:58:21.575Z,58.64
2023-12-20T05:59:22.101Z,58.56
2023-12-20T06:00:21.572Z,58.77
2023-12-20T06:01:21.546Z,56.42
2023-12-20T06:02:21.472Z,58.59
2023-12-20T06:03:22.034Z,58.34
2023-12-20T06:04:23.989Z,59.14
2023-12-20T06:05:22.471Z,59.12
2023-12-20T10:23:26.049Z,61.67
2023-12-20T16:28:13.939Z,58.62
2023-12-20T16:40:16.138Z,62.80
2023-12-20T16:41:15.975Z,60.61
2023-12-20T16:42:15.748Z,59.27
2023-12-20T16:43:15.674Z,57.41
2023-12-20T16:44:15.673Z,57.78
2023-12-20T16:45:15.760Z,58.24
2023-12-20T16:46:15.950Z,59.52
2023-12-20T16:47:15.714Z,58.00
2023-12-20T16:48:16.033Z,57.98
2023-12-20T16:49:15.748Z,60.53
2023-12-20T16:50:16.009Z,58.30
2023-12-20T16:51:15.700Z,57.62
2023-12-20T16:52:15.563Z,58.89
2023-12-20T16:53:15.526Z,59.50
2023-12-20T16:54:15.457Z,59.94
2023-12-20T16:55:15.639Z,59.73
2023-12-20T16:56:15.695Z,60.07
2023-12-20T16:57:15.425Z,59.94
2023-12-20T16:58:16.304Z,59.94
2023-12-20T16:59:15.516Z,60.18
2023-12-20T17:03:06.643Z,61.16
2023-12-20T17:17:14.066Z,57.67
2023-12-20T17:18:14.050Z,58.66
2023-12-20T17:19:14.160Z,57.60
2023-12-20T17:20:14.370Z,57.84
2023-12-20T17:21:14.002Z,59.63
2023-12-20T17:22:15.338Z,60.07
2023-12-20T17:23:15.069Z,58.30
2023-12-20T17:34:50.799Z,58.89
2023-12-20T17:35:52.310Z,59.55
2023-12-20T17:36:50.331Z,59.04
2023-12-20T17:37:50.692Z,57.77
2023-12-20T17:38:50.390Z,57.59
2023-12-20T17:39:50.395Z,56.89
2023-12-20T17:40:50.231Z,58.44
2023-12-20T17:41:50.280Z,59.97
2023-12-20T17:42:50.377Z,59.41
2023-12-20T17:43:50.330Z,57.04
2023-12-20T17:44:50.664Z,58.19
2023-12-20T17:45:50.404Z,59.29
2023-12-20T17:46:50.276Z,58.15
2023-12-20T17:47:50.720Z,57.87
2023-12-20T17:48:50.480Z,59.44
2023-12-20T17:49:51.335Z,57.09
2023-12-20T17:50:50.312Z,57.40
2023-12-20T17:51:50.323Z,61.94
2023-12-20T17:52:50.240Z,59.62
2023-12-20T17:53:50.466Z,57.42
2023-12-20T17:55:14.297Z,55.70
2023-12-20T17:55:50.128Z,56.83
2023-12-20T17:56:50.377Z,56.41
2023-12-20T17:58:50.169Z,55.52
2023-12-20T18:00:35.274Z,57.34
2023-12-20T18:00:50.230Z,57.13
2023-12-20T18:01:50.284Z,57.97
2023-12-20T18:02:50.903Z,57.18
2023-12-20T18:03:51.103Z,56.05
2023-12-20T18:04:50.550Z,58.09
2023-12-20T18:05:50.378Z,58.05
2023-12-20T18:06:50.353Z,60.74
2023-12-20T18:07:50.674Z,59.49
2023-12-20T18:08:50.178Z,59.96
2023-12-20T18:09:50.236Z,56.50
2023-12-20T18:10:50.327Z,58.55
2023-12-20T18:11:50.446Z,56.48
2023-12-20T18:12:50.243Z,57.01
2023-12-20T18:17:56.198Z,55.53
2023-12-20T18:18:56.307Z,56.11
2023-12-20T18:19:56.398Z,56.86
2023-12-20T18:20:57.765Z,56.88
2023-12-20T18:21:57.352Z,58.64
2023-12-20T18:22:57.417Z,55.40
2023-12-20T18:24:02.617Z,57.94
2023-12-20T18:24:59.215Z,56.60
2023-12-20T18:25:57.306Z,57.17
2023-12-20T22:24:04.111Z,55.86
2023-12-20T22:25:03.998Z,55.49
2023-12-20T22:26:04.540Z,56.58
2023-12-20T22:35:33.298Z,51.96
2023-12-20T22:36:32.577Z,55.92
2023-12-20T22:37:32.542Z,54.56
2023-12-20T22:39:13.375Z,54.27
2023-12-20T22:39:32.349Z,56.23
2023-12-20T23:41:57.972Z,51.02
2023-12-20T23:43:21.108Z,52.76
2023-12-20T23:57:45.380Z,52.18
